Time;durP1;ratioP1;P1;durP2;ratioP2;P2;SDS_P1;SDS_P2;PMS_P1;PMS_P2;Temp;Humidity;BMP_temperature;BMP_pressure;BME280_temperature;BME280_humidity;BME280_pressure;Samples;Min_cycle;Max_cycle;Signal;HPM_P1;HPM_P2
2022/11/24 00:01:15;;;;;;;24.23;16.97;;;;;;;10.18;94.51;98461.31;5031461;28;20200;-53
2022/11/24 00:03:42;;;;;;;26.20;17.33;;;;;;;10.22;94.13;98473.31;5033480;28;20262;-56
2022/11/24 00:06:11;;;;;;;24.77;15.47;;;;;;;10.20;93.72;98472.44;5036281;28;20189;-54
2022/11/24 00:08:43;;;;;;;22.77;15.57;;;;;;;10.16;93.66;98475.84;5036220;28;20188;-54
2022/11/24 00:11:11;;;;;;;26.50;16.43;;;;;;;10.18;93.25;98474.16;5036456;28;20193;-54
2022/11/24 00:13:39;;;;;;;22.20;16.20;;;;;;;10.16;93.81;98478.44;5035412;28;20258;-54
2022/11/24 00:16:10;;;;;;;31.15;22.42;;;;;;;10.21;94.37;98476.72;5035689;28;20929;-54
2022/11/24 00:18:37;;;;;;;32.57;22.63;;;;;;;10.20;95.23;98469.84;5035326;28;20201;-54
2022/11/24 00:21:04;;;;;;;35.00;25.20;;;;;;;10.21;96.26;98477.56;5035412;28;20622;-54
2022/11/24 00:23:31;;;;;;;42.33;26.93;;;;;;;10.14;96.28;98478.41;5035196;28;20216;-55
2022/11/24 00:26:06;;;;;;;34.83;25.33;;;;;;;10.02;97.01;98476.66;5035467;28;20251;-54
2022/11/24 00:28:33;;;;;;;38.07;27.23;;;;;;;9.85;97.34;98468.06;5035693;28;20195;-55
2022/11/24 00:31:00;;;;;;;47.85;34.45;;;;;;;9.69;98.92;98466.31;5034616;28;20506;-54
2022/11/24 00:33:27;;;;;;;45.87;32.63;;;;;;;9.75;99.61;98455.22;5043791;28;20207;-54
2022/11/24 00:35:55;;;;;;;41.97;30.63;;;;;;;9.77;100.00;98463.75;5036063;28;20594;-54
2022/11/24 00:38:22;;;;;;;41.93;30.03;;;;;;;9.78;100.00;98466.31;5035212;28;20188;-54
2022/11/24 00:40:49;;;;;;;44.57;32.50;;;;;;;9.73;100.00;98462.03;5035720;28;20196;-55
2022/11/24 00:43:17;;;;;;;45.47;32.97;;;;;;;9.60;100.00;98444.91;5044120;28;20216;-56
2022/11/24 00:45:44;;;;;;;45.80;31.00;;;;;;;9.73;100.00;98462.03;5054490;28;20191;-55
2022/11/24 00:48:11;;;;;;;43.47;33.40;;;;;;;9.64;100.00;98467.16;5052493;28;20200;-54
2022/11/24 00:50:37;;;;;;;44.80;30.60;;;;;;;9.69;100.00;98473.16;5051894;28;20245;-55
2022/11/24 00:53:04;;;;;;;47.40;31.93;;;;;;;9.67;100.00;98472.28;5062511;28;20192;-54
2022/11/24 00:55:31;;;;;;;41.97;28.93;;;;;;;9.69;100.00;98468.00;5074970;28;20195;-54
2022/11/24 00:57:58;;;;;;;39.13;27.87;;;;;;;9.66;100.00;98468.88;5074756;28;20188;-55
2022/11/24 01:00:26;;;;;;;33.70;24.57;;;;;;;9.63;99.49;98470.56;5074673;28;20193;-55
2022/11/24 01:02:53;;;;;;;30.20;21.83;;;;;;;9.51;98.76;98471.34;5074558;28;20705;-54
2022/11/24 01:05:20;;;;;;;28.40;21.03;;;;;;;9.44;98.27;98470.50;5067205;28;20200;-54
2022/11/24 01:07:46;;;;;;;27.50;20.20;;;;;;;9.34;98.44;98473.84;5054528;28;20242;-54
2022/11/24 01:10:13;;;;;;;27.23;20.07;;;;;;;9.40;98.41;98479.00;5054579;28;20191;-54
2022/11/24 01:12:40;;;;;;;23.73;19.50;;;;;;;9.39;97.98;98472.16;5054523;28;20192;-55
2022/11/24 01:15:07;;;;;;;32.17;20.53;;;;;;;9.35;97.66;98480.69;5059187;28;20565;-54
2022/11/24 01:17:36;;;;;;;23.97;20.07;;;;;;;9.31;97.83;98481.53;5074775;28;20612;-54
2022/11/24 01:20:03;;;;;;;30.37;20.57;;;;;;;9.32;97.84;98480.69;5074847;28;20256;-54
2022/11/24 01:22:31;;;;;;;34.30;25.17;;;;;;;9.32;97.94;98477.25;5074178;28;20723;-54
2022/11/24 01:24:58;;;;;;;32.47;24.03;;;;;;;9.27;99.06;98484.94;5074274;28;20578;-54
2022/11/24 01:27:24;;;;;;;37.10;25.80;;;;;;;9.26;99.38;98484.91;5074211;28;20577;-54
2022/11/24 01:29:51;;;;;;;32.63;24.10;;;;;;;9.31;99.93;98494.34;5074021;28;20734;-54
2022/11/24 01:32:18;;;;;;;34.90;25.30;;;;;;;9.31;100.00;98496.06;5074241;28;20261;-54
2022/11/24 01:34:46;;;;;;;34.87;24.90;;;;;;;9.31;100.00;98496.91;5070426;28;20219;-54
2022/11/24 01:37:13;;;;;;;30.30;24.20;;;;;;;9.21;100.00;98486.59;5065149;28;20196;-55
2022/11/24 01:39:39;;;;;;;31.43;24.03;;;;;;;9.26;100.00;98498.59;5052546;28;20238;-55
2022/11/24 01:42:07;;;;;;;31.33;24.00;;;;;;;9.29;100.00;98500.31;5052345;28;20685;-55
2022/11/24 01:44:34;;;;;;;30.87;24.43;;;;;;;9.21;100.00;98489.16;5052366;28;20219;-54
2022/11/24 01:47:05;;;;;;;31.97;25.23;;;;;;;9.36;100.00;98502.06;5052329;28;20188;-56
2022/11/24 01:49:39;;;;;;;30.50;23.53;;;;;;;9.26;100.00;98480.66;5052297;28;20188;-55
2022/11/24 01:52:14;;;;;;;30.00;22.57;;;;;;;9.32;100.00;98485.81;5050194;28;20229;-55
2022/11/24 01:54:45;;;;;;;30.83;27.10;;;;;;;9.45;100.00;98486.72;5047418;28;20456;-55
2022/11/24 01:57:19;;;;;;;30.23;23.87;;;;;;;9.53;99.14;98499.59;5053447;28;20200;-54
2022/11/24 01:59:48;;;;;;;28.57;21.80;;;;;;;9.50;98.12;98495.31;5051069;28;20255;-55
2022/11/24 02:02:15;;;;;;;25.93;22.33;;;;;;;9.43;98.11;98499.53;5051175;28;20189;-56
2022/11/24 02:04:43;;;;;;;25.87;20.93;;;;;;;9.40;98.17;98503.78;5048372;28;20220;-56
2022/11/24 02:07:12;;;;;;;27.30;21.83;;;;;;;9.35;97.98;98497.78;5049905;28;20189;-55
2022/11/24 02:09:45;;;;;;;32.00;22.27;;;;;;;9.25;97.68;98490.91;5051854;28;20188;-56
2022/11/24 02:12:12;;;;;;;30.20;22.60;;;;;;;9.16;98.17;98493.41;5052408;28;20254;-55
2022/11/24 02:14:41;;;;;;;23.93;19.97;;;;;;;9.09;98.15;98501.91;5052032;28;20195;-55
2022/11/24 02:17:08;;;;;;;28.07;19.40;;;;;;;9.00;98.49;98499.28;5048216;28;20200;-55
2022/11/24 02:19:47;;;;;;;25.60;18.50;;;;;;;8.97;98.94;98496.72;5047760;28;20197;-57
2022/11/24 02:22:21;;;;;;;26.43;20.03;;;;;;;8.94;98.63;98505.22;5047775;28;20195;-55
2022/11/24 02:24:52;;;;;;;25.97;19.47;;;;;;;8.83;98.88;98489.78;5050498;28;20196;-56
2022/11/24 02:27:20;;;;;;;23.87;18.50;;;;;;;8.80;99.10;98496.59;5066654;28;20187;-55
2022/11/24 02:29:48;;;;;;;26.63;19.80;;;;;;;8.83;99.41;98500.03;5053594;28;20200;-55
2022/11/24 02:32:16;;;;;;;28.60;20.23;;;;;;;8.82;99.34;98498.31;5036838;28;20243;-55
2022/11/24 02:34:43;;;;;;;25.27;20.07;;;;;;;8.83;99.05;98496.63;5033320;28;20228;-55
2022/11/24 02:37:10;;;;;;;26.93;21.47;;;;;;;8.84;98.69;98490.66;5033516;28;20255;-55
2022/11/24 02:39:37;;;;;;;29.27;21.07;;;;;;;8.83;98.75;98487.22;5032919;28;20197;-55
2022/11/24 02:42:09;;;;;;;26.03;20.47;;;;;;;8.84;98.41;98490.66;5032984;28;20246;-55
2022/11/24 02:44:42;;;;;;;28.10;20.13;;;;;;;8.80;98.30;98502.56;5032886;28;20766;-55
2022/11/24 02:47:11;;;;;;;27.47;20.70;;;;;;;8.76;98.25;98495.69;5032671;28;20737;-55
2022/11/24 02:49:38;;;;;;;29.60;21.23;;;;;;;8.78;98.11;98496.59;5032642;28;20239;-55
2022/11/24 02:52:05;;;;;;;25.23;19.90;;;;;;;8.71;97.68;98494.81;5033146;28;20270;-55
2022/11/24 02:54:32;;;;;;;24.70;20.70;;;;;;;8.67;97.69;98493.09;5032592;28;20259;-55
2022/11/24 02:56:59;;;;;;;24.03;19.63;;;;;;;8.62;97.68;98497.31;5032704;28;20188;-55
2022/11/24 02:59:26;;;;;;;23.17;19.70;;;;;;;8.44;97.82;98479.25;5032637;28;20195;-54
2022/11/24 03:01:54;;;;;;;24.03;20.43;;;;;;;8.45;98.42;98492.91;5032757;28;20196;-54
2022/11/24 03:04:21;;;;;;;26.37;20.63;;;;;;;8.32;98.69;98497.91;5033023;28;20275;-55
2022/11/24 03:06:47;;;;;;;24.60;19.70;;;;;;;8.21;99.10;98496.09;5032509;28;20195;-55
2022/11/24 03:09:14;;;;;;;23.13;18.30;;;;;;;8.22;99.44;98498.63;5032652;28;20254;-54
2022/11/24 03:11:41;;;;;;;26.37;18.37;;;;;;;8.13;99.40;98507.94;5032560;28;20196;-55
2022/11/24 03:14:08;;;;;;;25.20;19.50;;;;;;;8.13;99.50;98516.44;5032336;28;20203;-55
2022/11/24 03:16:35;;;;;;;24.43;19.73;;;;;;;8.08;99.85;98504.47;5032583;28;20196;-55
2022/11/24 03:19:03;;;;;;;24.87;19.40;;;;;;;8.14;99.68;98514.75;5051470;28;20209;-55
2022/11/24 03:21:30;;;;;;;24.80;17.93;;;;;;;8.13;99.71;98510.50;5052082;28;20192;-56
2022/11/24 03:23:57;;;;;;;25.23;18.50;;;;;;;8.11;99.21;98518.16;5052020;28;20227;-54
2022/11/24 03:26:25;;;;;;;23.47;18.47;;;;;;;8.12;99.18;98521.56;5052047;28;20246;-54
2022/11/24 03:28:54;;;;;;;22.27;17.40;;;;;;;8.09;99.38;98522.38;5052139;28;20590;-54
2022/11/24 03:31:21;;;;;;;23.67;18.13;;;;;;;8.14;99.33;98532.66;5051836;28;20191;-54
2022/11/24 03:33:48;;;;;;;23.95;19.10;;;;;;;8.05;99.53;98514.66;5051200;28;20442;-54
2022/11/24 03:36:16;;;;;;;20.20;15.90;;;;;;;8.04;99.13;98497.59;5052435;28;20192;-54
2022/11/24 03:38:43;;;;;;;22.53;15.70;;;;;;;8.17;99.25;98525.88;5051394;28;20225;-54
2022/11/24 03:41:10;;;;;;;17.93;13.90;;;;;;;8.22;98.89;98533.59;5051950;28;20193;-54
2022/11/24 03:43:37;;;;;;;20.90;14.93;;;;;;;8.18;98.62;98519.94;5051844;28;20219;-54
2022/11/24 03:46:04;;;;;;;21.77;17.38;;;;;;;8.26;98.55;98531.09;5051899;28;20493;-54
2022/11/24 03:48:31;;;;;;;20.90;16.70;;;;;;;8.22;98.51;98519.09;5051703;28;20192;-54
2022/11/24 03:51:01;;;;;;;20.10;15.33;;;;;;;8.32;98.07;98535.47;5052034;28;20184;-54
2022/11/24 03:53:32;;;;;;;19.67;14.07;;;;;;;8.32;97.59;98532.91;5051978;28;20196;-54
2022/11/24 03:56:00;;;;;;;21.60;15.87;;;;;;;8.24;97.85;98532.75;5051629;28;20734;-54
2022/11/24 03:58:27;;;;;;;21.00;15.53;;;;;;;8.18;97.62;98540.41;5051873;28;20188;-55
2022/11/24 04:00:55;;;;;;;21.63;15.37;;;;;;;8.16;97.99;98533.53;5051622;28;20270;-54
2022/11/24 04:03:22;;;;;;;19.63;14.47;;;;;;;8.09;98.24;98532.63;5051781;28;20246;-55
2022/11/24 04:05:49;;;;;;;17.87;14.20;;;;;;;8.12;97.95;98540.34;5051506;28;20192;-55
2022/11/24 04:08:16;;;;;;;18.40;14.10;;;;;;;7.96;97.97;98515.44;5051555;28;20185;-55
2022/11/24 04:10:44;;;;;;;20.73;15.23;;;;;;;8.08;98.41;98541.13;5051673;28;20191;-55
2022/11/24 04:13:12;;;;;;;18.90;14.30;;;;;;;8.12;97.97;98536.91;5051677;28;20240;-55
2022/11/24 04:15:40;;;;;;;16.90;14.00;;;;;;;8.20;97.95;98540.41;5051569;28;20233;-55
2022/11/24 04:18:07;;;;;;;18.37;14.67;;;;;;;8.23;97.40;98540.44;5051957;28;20193;-55
2022/11/24 04:20:34;;;;;;;16.00;13.23;;;;;;;8.29;97.02;98543.09;5051727;28;20279;-55
2022/11/24 04:23:01;;;;;;;17.70;15.30;;;;;;;8.34;96.79;98544.00;5048846;28;20451;-54
2022/11/24 04:25:29;;;;;;;18.53;14.77;;;;;;;8.35;96.54;98540.56;5049884;28;20463;-55
2022/11/24 04:27:58;;;;;;;17.20;12.87;;;;;;;8.41;96.30;98545.75;5050199;28;20226;-56
2022/11/24 04:30:26;;;;;;;15.17;11.47;;;;;;;8.44;95.91;98544.94;5050199;28;20625;-55
2022/11/24 04:32:53;;;;;;;13.93;10.03;;;;;;;8.46;95.73;98544.09;5047815;28;20199;-55
2022/11/24 04:35:21;;;;;;;14.85;11.85;;;;;;;8.53;95.17;98551.00;5050065;28;20454;-55
2022/11/24 04:37:48;;;;;;;14.13;11.17;;;;;;;8.48;95.03;98526.22;5060093;28;20246;-55
2022/11/24 04:40:15;;;;;;;13.33;11.60;;;;;;;8.62;94.50;98545.97;5071422;28;20187;-55
2022/11/24 04:42:42;;;;;;;16.60;12.20;;;;;;;8.66;94.67;98557.06;5071585;28;20188;-55
2022/11/24 04:45:11;;;;;;;14.47;11.83;;;;;;;8.65;94.56;98553.66;5071249;28;20211;-54
2022/11/24 04:47:38;;;;;;;14.93;12.60;;;;;;;8.60;95.45;98554.44;5071477;28;20210;-55
2022/11/24 04:50:06;;;;;;;17.83;12.53;;;;;;;8.64;95.71;98554.50;5073854;28;20658;-55
2022/11/24 04:52:33;;;;;;;17.23;13.53;;;;;;;8.64;95.67;98551.94;5074955;28;20195;-55
2022/11/24 04:55:00;;;;;;;18.47;13.03;;;;;;;8.67;96.04;98558.81;5075237;28;20188;-54
2022/11/24 04:57:27;;;;;;;17.30;13.60;;;;;;;8.74;95.73;98565.69;5074817;28;20195;-55
2022/11/24 04:59:54;;;;;;;19.20;13.10;;;;;;;8.74;95.58;98556.28;5074841;28;20226;-55
2022/11/24 05:02:23;;;;;;;18.17;12.87;;;;;;;8.76;95.37;98564.00;5075514;28;20269;-55
2022/11/24 05:04:50;;;;;;;16.83;12.57;;;;;;;8.83;95.28;98576.00;5074717;28;20311;-55
2022/11/24 05:07:18;;;;;;;16.97;12.77;;;;;;;8.84;94.89;98563.19;5073814;28;20184;-55
2022/11/24 05:12:30;;;;;;;21.88;13.75;;;;;;;8.78;94.30;98570.84;5066621;28;20170;-55
2022/11/24 05:14:58;;;;;;;16.10;12.77;;;;;;;8.83;94.32;98573.44;5074524;28;20668;-55
2022/11/24 05:17:29;;;;;;;16.00;12.57;;;;;;;8.83;94.06;98576.88;5074589;28;20675;-55
2022/11/24 05:19:56;;;;;;;16.87;12.70;;;;;;;8.82;93.27;98575.16;5058843;28;20231;-55
2022/11/24 05:22:23;;;;;;;17.43;13.83;;;;;;;8.75;93.40;98580.22;5054637;28;20191;-55
2022/11/24 05:24:50;;;;;;;18.87;14.63;;;;;;;8.76;93.47;98584.50;5054310;28;20227;-55
2022/11/24 05:27:16;;;;;;;17.70;14.00;;;;;;;8.78;92.67;98585.34;5053393;28;20809;-55
2022/11/24 05:29:43;;;;;;;17.70;13.83;;;;;;;8.79;92.38;98590.47;5054587;28;20200;-55
2022/11/24 05:32:10;;;;;;;20.53;12.80;;;;;;;8.72;91.79;98593.84;5054371;28;20243;-55
2022/11/24 05:34:38;;;;;;;18.63;14.07;;;;;;;8.70;91.77;98594.69;5054358;28;20240;-56
2022/11/24 05:37:05;;;;;;;15.97;13.17;;;;;;;8.65;92.16;98591.22;5054165;28;20544;-55
2022/11/24 05:39:32;;;;;;;20.53;14.80;;;;;;;8.63;92.18;98588.63;5054239;28;20192;-55
2022/11/24 05:41:59;;;;;;;19.93;13.73;;;;;;;8.59;92.47;98586.91;5054376;28;20191;-55
2022/11/24 05:44:26;;;;;;;18.43;13.17;;;;;;;8.58;91.97;98589.44;5053922;28;20230;-56
2022/11/24 05:46:53;;;;;;;17.80;13.20;;;;;;;8.52;92.29;98595.34;5054308;28;20196;-56
2022/11/24 05:49:20;;;;;;;16.73;13.67;;;;;;;8.49;92.73;98592.75;5053818;28;20749;-55
2022/11/24 05:51:48;;;;;;;23.37;14.07;;;;;;;8.59;92.74;98602.28;5053868;28;20188;-55
2022/11/24 05:54:15;;;;;;;22.07;14.70;;;;;;;8.55;92.54;98602.19;5053986;28;20211;-55
2022/11/24 05:56:42;;;;;;;24.97;15.67;;;;;;;8.59;92.53;98609.09;5053923;28;20192;-55
2022/11/24 05:59:08;;;;;;;23.73;17.67;;;;;;;8.55;92.71;98612.44;5053505;28;20574;-56
2022/11/24 06:01:35;;;;;;;26.93;17.03;;;;;;;8.62;92.75;98611.66;5053243;28;20564;-55
2022/11/24 06:04:02;;;;;;;27.50;17.77;;;;;;;8.73;92.74;98600.69;5053408;28;20222;-55
2022/11/24 06:06:29;;;;;;;25.20;17.37;;;;;;;8.79;92.21;98600.72;5044700;28;20208;-55
2022/11/24 06:08:57;;;;;;;21.50;15.73;;;;;;;8.89;91.98;98605.09;5037123;28;20196;-56
2022/11/24 06:11:24;;;;;;;23.53;16.43;;;;;;;8.97;91.73;98612.84;5052595;28;20196;-56
2022/11/24 06:13:50;;;;;;;27.80;18.97;;;;;;;8.90;91.58;98617.03;5072825;28;20206;-56
2022/11/24 06:16:17;;;;;;;33.33;22.23;;;;;;;8.77;91.55;98624.59;5066523;28;20450;-55
2022/11/24 06:18:44;;;;;;;30.93;21.10;;;;;;;8.57;92.44;98626.13;5073237;28;20191;-55
2022/11/24 06:21:11;;;;;;;30.23;21.10;;;;;;;8.61;92.79;98633.00;5073204;28;20184;-55
2022/11/24 06:23:38;;;;;;;37.77;23.00;;;;;;;8.57;93.00;98611.59;5073262;28;20289;-56
2022/11/24 06:26:08;;;;;;;41.77;23.40;;;;;;;8.77;93.03;98633.16;5072967;28;20226;-55
2022/11/24 06:28:35;;;;;;;33.73;21.77;;;;;;;8.77;92.59;98622.91;5072917;28;20331;-55
2022/11/24 06:31:02;;;;;;;34.33;22.43;;;;;;;8.72;92.52;98618.59;5073093;28;20194;-55
2022/11/24 06:33:32;;;;;;;42.03;23.07;;;;;;;8.87;93.07;98639.25;5072736;28;20222;-55
2022/11/24 06:36:01;;;;;;;24.50;17.13;;;;;;;8.95;92.74;98644.41;5073109;28;20191;-55
2022/11/24 06:38:28;;;;;;;39.17;26.07;;;;;;;9.04;91.85;98639.38;5072517;28;20670;-55
2022/11/24 06:40:59;;;;;;;13.53;10.83;;;;;;;9.42;90.78;98645.66;5072541;28;20581;-56
2022/11/24 06:43:28;;;;;;;17.23;11.57;;;;;;;9.69;88.47;98562.91;5072786;28;20249;-56
2022/11/24 06:45:55;;;;;;;13.73;11.00;;;;;;;10.26;84.76;98644.44;5067559;28;20220;-55
2022/11/24 06:48:22;;;;;;;19.60;11.80;;;;;;;10.19;83.28;98653.78;5052091;28;20222;-56
2022/11/24 06:50:49;;;;;;;13.97;10.40;;;;;;;10.15;83.32;98653.78;5052491;28;20196;-56
2022/11/24 06:53:16;;;;;;;16.73;10.97;;;;;;;10.07;83.09;98648.59;5051670;28;20594;-55
2022/11/24 06:55:45;;;;;;;12.37;9.30;;;;;;;9.98;82.91;98654.53;5049732;28;20660;-55
2022/11/24 06:58:12;;;;;;;14.70;10.83;;;;;;;9.94;83.18;98655.38;5052259;28;20562;-56
2022/11/24 07:00:40;;;;;;;21.27;11.03;;;;;;;9.85;82.95;98662.16;5052255;28;20203;-56
2022/11/24 07:03:07;;;;;;;14.20;10.80;;;;;;;9.86;83.58;98653.63;5051725;28;20763;-55
2022/11/24 07:05:34;;;;;;;14.77;9.93;;;;;;;9.87;83.48;98656.19;5051891;28;20565;-55
2022/11/24 07:08:01;;;;;;;15.30;9.67;;;;;;;9.85;83.06;98652.78;5051582;28;20620;-55
2022/11/24 07:10:28;;;;;;;16.60;9.40;;;;;;;9.88;82.89;98660.50;5051754;28;20265;-55
2022/11/24 07:12:54;;;;;;;13.10;10.00;;;;;;;9.87;82.66;98658.75;5067594;28;20295;-57
2022/11/24 07:15:21;;;;;;;12.50;9.57;;;;;;;9.94;82.93;98667.34;5048680;28;20196;-57
2022/11/24 07:17:49;;;;;;;13.67;9.73;;;;;;;9.94;82.72;98673.31;5049916;28;20280;-57
2022/11/24 07:20:17;;;;;;;16.97;11.10;;;;;;;9.74;83.15;98635.59;5051329;28;20188;-55
2022/11/24 07:22:43;;;;;;;11.37;10.13;;;;;;;9.90;83.27;98665.59;5051845;28;20196;-56
2022/11/24 07:25:12;;;;;;;22.37;11.87;;;;;;;9.82;83.29;98652.75;5051615;28;20224;-56
2022/11/24 07:27:39;;;;;;;15.83;11.23;;;;;;;9.94;83.87;98669.94;5051722;28;20567;-56
2022/11/24 07:30:08;;;;;;;14.57;11.47;;;;;;;9.94;84.02;98669.94;5051749;28;20202;-55
2022/11/24 07:32:34;;;;;;;14.73;10.20;;;;;;;9.98;84.80;98664.81;5051906;28;20195;-56
2022/11/24 07:35:03;;;;;;;17.67;11.60;;;;;;;10.04;84.67;98658.84;5051811;28;20101;-55
2022/11/24 07:37:29;;;;;;;13.53;11.00;;;;;;;10.17;84.24;98670.06;5052248;28;20258;-56
2022/11/24 07:39:56;;;;;;;11.87;10.27;;;;;;;10.26;83.49;98670.97;5051921;28;20184;-56
2022/11/24 07:42:23;;;;;;;19.80;10.27;;;;;;;10.36;83.62;98674.41;5051442;28;20192;-56
2022/11/24 07:44:50;;;;;;;12.53;9.43;;;;;;;10.36;83.23;98659.00;5051496;28;20764;-56
2022/11/24 07:47:17;;;;;;;15.70;9.63;;;;;;;10.47;82.86;98655.63;5051480;28;20189;-56
2022/11/24 07:49:43;;;;;;;18.53;10.47;;;;;;;10.55;82.24;98656.50;5051486;28;20237;-56
2022/11/24 07:52:12;;;;;;;13.70;9.53;;;;;;;10.56;82.79;98647.97;5051613;28;20655;-56
2022/11/24 07:54:38;;;;;;;14.33;10.67;;;;;;;10.78;82.85;98658.28;5051138;28;20431;-56
2022/11/24 07:57:05;;;;;;;12.97;9.53;;;;;;;10.93;81.83;98660.88;5051594;28;20728;-55
2022/11/24 07:59:32;;;;;;;10.57;9.07;;;;;;;10.90;81.41;98646.31;5051445;28;20188;-56
2022/11/24 08:01:59;;;;;;;13.53;11.00;;;;;;;11.02;82.15;98648.88;5051539;28;20185;-56
2022/11/24 08:04:25;;;;;;;13.73;8.97;;;;;;;11.05;82.07;98664.31;5051374;28;20192;-56
2022/11/24 08:06:52;;;;;;;12.37;9.77;;;;;;;10.98;83.08;98660.03;5049206;28;20275;-56
2022/11/24 08:09:20;;;;;;;11.50;9.50;;;;;;;11.10;82.55;98657.44;5051171;28;20666;-56
2022/11/24 08:11:47;;;;;;;15.53;10.27;;;;;;;11.20;83.42;98660.91;5070445;28;20191;-56
2022/11/24 08:14:14;;;;;;;16.17;10.30;;;;;;;11.29;83.55;98662.63;5071161;28;20195;-56
2022/11/24 08:16:41;;;;;;;13.03;9.20;;;;;;;11.40;83.10;98668.63;5071288;28;20195;-56
2022/11/24 08:19:09;;;;;;;14.80;10.53;;;;;;;11.49;83.14;98664.31;5071240;28;20188;-58
2022/11/24 08:21:36;;;;;;;14.87;9.67;;;;;;;11.61;82.87;98663.44;5071160;28;20245;-56
2022/11/24 08:24:03;;;;;;;12.33;10.33;;;;;;;11.73;82.39;98666.00;5072124;28;20619;-56
2022/11/24 08:26:32;;;;;;;15.93;10.48;;;;;;;11.80;82.10;98662.59;5075102;28;20583;-56
2022/11/24 08:28:59;;;;;;;13.17;10.47;;;;;;;11.96;81.89;98666.84;5075333;28;20187;-55
2022/11/24 08:31:31;;;;;;;12.90;8.03;;;;;;;11.85;80.46;98637.69;5075063;28;20257;-55
2022/11/24 08:33:58;;;;;;;11.80;8.10;;;;;;;12.14;79.60;98660.78;5075277;28;20322;-56
2022/11/24 08:36:25;;;;;;;11.20;7.83;;;;;;;12.11;79.31;98653.94;5075046;28;20195;-55
2022/11/24 08:38:55;;;;;;;10.93;8.40;;;;;;;12.28;78.46;98671.88;5075327;28;20604;-56
2022/11/24 08:41:22;;;;;;;13.33;8.67;;;;;;;12.30;78.07;98658.16;5074325;28;20497;-56
2022/11/24 08:43:50;;;;;;;10.93;7.93;;;;;;;12.47;76.96;98659.78;5075451;28;20188;-56
2022/11/24 08:46:18;;;;;;;11.57;7.23;;;;;;;12.54;76.02;98661.47;5074944;28;20277;-56
2022/11/24 08:48:48;;;;;;;13.67;8.37;;;;;;;12.64;76.66;98656.25;5074794;28;20282;-56
2022/11/24 08:51:18;;;;;;;10.03;6.60;;;;;;;12.69;75.24;98662.22;5055353;28;20204;-56
2022/11/24 08:53:45;;;;;;;8.27;6.50;;;;;;;12.72;74.43;98662.22;5060435;28;20191;-56
2022/11/24 08:56:13;;;;;;;6.90;6.07;;;;;;;12.72;74.14;98659.63;5065338;28;20203;-56
2022/11/24 08:58:40;;;;;;;8.63;6.30;;;;;;;12.85;73.04;98665.59;5060899;28;20685;-57
2022/11/24 09:01:11;;;;;;;12.87;6.57;;;;;;;12.84;72.15;98648.41;5054041;28;20198;-56
2022/11/24 09:03:38;;;;;;;7.47;6.30;;;;;;;12.93;72.02;98651.78;5067972;28;20247;-56
2022/11/24 09:06:07;;;;;;;7.47;6.27;;;;;;;12.99;72.22;98650.91;5074877;28;20243;-56
2022/11/24 09:08:35;;;;;;;10.33;6.03;;;;;;;13.03;71.54;98639.66;5074747;28;20270;-56
2022/11/24 09:11:04;;;;;;;8.23;6.50;;;;;;;13.08;72.03;98652.56;5073364;28;20195;-56
2022/11/24 09:13:30;;;;;;;8.53;6.63;;;;;;;13.13;71.59;98651.66;5074576;28;20256;-57
2022/11/24 09:16:04;;;;;;;12.03;7.43;;;;;;;13.16;71.64;98635.34;5073711;28;20558;-57
2022/11/24 09:18:32;;;;;;;9.93;6.87;;;;;;;13.24;71.12;98634.38;5071131;28;20234;-56
2022/11/24 09:21:07;;;;;;;10.10;6.47;;;;;;;13.45;70.88;98651.41;5053404;28;20192;-56
2022/11/24 09:23:33;;;;;;;9.13;5.63;;;;;;;13.54;69.92;98639.25;5053721;28;20239;-56
2022/11/24 09:26:04;;;;;;;8.13;6.13;;;;;;;13.67;69.63;98642.59;5051833;28;20271;-56
2022/11/24 09:28:31;;;;;;;7.23;6.50;;;;;;;13.81;68.97;98648.50;5047600;28;20319;-56
2022/11/24 09:31:01;;;;;;;6.53;5.83;;;;;;;13.91;68.44;98644.06;5052356;28;20261;-56
2022/11/24 09:33:28;;;;;;;10.43;6.60;;;;;;;14.07;67.53;98637.84;5053551;28;20193;-56
2022/11/24 09:35:56;;;;;;;7.47;6.17;;;;;;;14.10;67.85;98632.66;5052383;28;20193;-56
2022/11/24 09:38:23;;;;;;;10.23;7.13;;;;;;;14.17;68.08;98623.97;5053440;28;20201;-56
2022/11/24 09:40:50;;;;;;;8.33;5.97;;;;;;;14.25;67.54;98623.88;5061792;28;20571;-55
2022/11/24 09:43:32;;;;;;;9.93;5.23;;;;;;;14.33;65.56;98628.09;5056970;28;20218;-56
2022/11/24 09:46:08;;;;;;;7.57;4.87;;;;;;;14.48;65.20;98624.44;5044344;28;20248;-55
2022/11/24 09:48:40;;;;;;;6.03;4.50;;;;;;;14.63;63.46;98619.94;5035719;28;20201;-55
2022/11/24 09:51:12;;;;;;;5.67;4.53;;;;;;;14.66;62.06;98604.41;5041808;28;20692;-56
2022/11/24 09:53:44;;;;;;;9.43;5.47;;;;;;;14.84;62.97;98618.78;5043111;28;20193;-56
2022/11/24 09:56:19;;;;;;;7.27;4.80;;;;;;;14.84;63.00;98598.06;5052150;28;20282;-56
2022/11/24 09:58:49;;;;;;;8.17;5.60;;;;;;;15.14;61.77;98620.03;5064146;28;20220;-56
2022/11/24 10:01:18;;;;;;;7.43;3.70;;;;;;;15.27;59.15;98617.22;5053266;28;20235;-56
2022/11/24 10:03:47;;;;;;;5.60;3.83;;;;;;;15.33;59.27;98611.94;5053256;28;20646;-56
2022/11/24 10:06:23;;;;;;;6.80;3.50;;;;;;;15.56;57.72;98615.91;5052861;28;20223;-55
2022/11/24 10:09:13;;;;;;;8.17;4.00;;;;;;;15.61;57.71;98612.34;5053228;28;20241;-55
2022/11/24 10:11:46;;;;;;;4.27;3.57;;;;;;;15.79;56.98;98613.75;5053094;28;20770;-55
2022/11/24 10:14:38;;;;;;;5.97;3.33;;;;;;;15.85;55.84;98613.63;5067251;28;20191;-56
2022/11/24 10:17:13;;;;;;;7.10;3.90;;;;;;;15.85;55.53;98605.84;5073664;28;20191;-55
2022/11/24 10:19:48;;;;;;;4.80;3.27;;;;;;;15.96;55.19;98603.91;5073363;28;20230;-56
2022/11/24 10:22:34;;;;;;;3.67;3.10;;;;;;;16.03;55.21;98592.56;5073326;28;20190;-56
2022/11/24 10:25:20;;;;;;;5.97;3.63;;;;;;;16.13;54.63;98603.56;5073575;28;20324;-56
2022/11/24 10:27:52;;;;;;;6.00;3.63;;;;;;;16.14;54.25;98603.56;5073376;28;20658;-56
2022/11/24 10:30:22;;;;;;;6.93;3.30;;;;;;;16.27;53.43;98606.72;5072990;28;20198;-56
2022/11/24 10:32:52;;;;;;;4.37;3.40;;;;;;;16.25;53.02;98606.78;5072385;28;20642;-56
2022/11/24 10:35:21;;;;;;;6.37;3.63;;;;;;;16.36;53.40;98614.34;5072751;28;20285;-57
2022/11/24 10:37:58;;;;;;;5.53;3.27;;;;;;;16.48;52.96;98603.72;5072730;28;20674;-56
2022/11/24 10:40:33;;;;;;;4.40;2.87;;;;;;;16.56;51.40;98593.19;5059084;28;20206;-56
2022/11/24 10:43:00;;;;;;;5.37;3.20;;;;;;;16.60;51.32;98598.28;5052569;28;20191;-56
2022/11/24 10:45:28;;;;;;;4.00;2.80;;;;;;;16.61;50.04;98591.34;5052625;28;20239;-55
2022/11/24 10:47:55;;;;;;;5.37;2.90;;;;;;;16.63;50.63;98595.63;5046881;28;20249;-57
2022/11/24 10:50:23;;;;;;;3.17;2.40;;;;;;;16.57;49.83;98580.19;5051668;28;20246;-56
2022/11/24 10:53:00;;;;;;;3.63;2.60;;;;;;;16.65;49.03;98596.41;5052121;28;20184;-57
2022/11/24 10:55:49;;;;;;;7.07;2.30;;;;;;;16.68;49.24;98593.75;5052142;28;20207;-56
2022/11/24 10:58:16;;;;;;;3.50;2.53;;;;;;;16.77;49.58;98590.09;5063038;28;20206;-56
2022/11/24 11:00:43;;;;;;;4.83;2.57;;;;;;;16.73;49.38;98591.09;5072234;28;20252;-56
2022/11/24 11:03:16;;;;;;;4.17;2.80;;;;;;;16.87;49.12;98597.63;5071818;28;20187;-56
2022/11/24 11:05:47;;;;;;;3.40;2.77;;;;;;;16.94;48.95;98577.59;5071801;28;20215;-56
2022/11/24 11:08:31;;;;;;;4.40;2.93;;;;;;;17.09;49.30;98587.59;5072650;28;20194;-56
2022/11/24 11:11:21;;;;;;;4.90;2.90;;;;;;;17.05;49.58;98576.47;5070027;28;20437;-56
2022/11/24 11:13:55;;;;;;;5.33;2.97;;;;;;;17.13;49.05;98596.16;5071675;28;20248;-58
2022/11/24 11:16:26;;;;;;;4.47;3.13;;;;;;;17.04;49.26;98579.94;5070995;28;20187;-57
2022/11/24 11:18:53;;;;;;;5.93;3.17;;;;;;;17.03;49.67;98595.56;5071560;28;20188;-56
2022/11/24 11:21:31;;;;;;;6.90;3.60;;;;;;;17.04;50.32;98592.91;5071867;28;20198;-56
2022/11/24 11:24:01;;;;;;;6.83;3.40;;;;;;;16.97;50.12;98595.69;5071870;28;20195;-56
2022/11/24 11:26:32;;;;;;;5.97;3.57;;;;;;;16.82;50.52;98573.53;5071098;28;20266;-56
2022/11/24 11:29:02;;;;;;;5.93;5.00;;;;;;;16.91;50.21;98582.84;5071840;28;20270;-56
2022/11/24 11:31:30;;;;;;;5.27;3.40;;;;;;;17.01;49.64;98584.34;5071753;28;20198;-57
2022/11/24 11:34:03;;;;;;;4.63;3.53;;;;;;;16.99;49.57;98584.38;5071186;28;20640;-56
2022/11/24 11:36:31;;;;;;;3.70;2.80;;;;;;;16.95;49.77;98579.28;5071777;28;20230;-56